Latest Coastal Weather Observations for Hamilton Island

IDQ60701

Issued at 11:42 pm EST Monday 27 April 2015 (issued every 10 minutes, with the page automatically refreshed every 10 minutes)

About coastal observations | Map of coastal stations | Coastal observations for QLD | Marine services | Other Formats
Station Details ID: 033106 Name: HAMILTON ISLAND AIRPORT Lat: -20.37 Lon: 148.95 Height: 58.66 m
Data from the previous 72 hours. | See also: Recent months at Hamilton Island
Date/Time
EST
Temp

°C
Wind Pressure Rain
since 9am
mm
Weather Cloud Vis
km
Sea
Height
m
Swell
Dir
 
Speed
knots
Gust
knots
hPa Trend Height
m
Period
s
Dir
27/11:30pm 22.2 SE 10 14 1018.8 - 0.0 - - 10 - - - -
27/11:00pm 22.2 SE 11 15 1018.9 - 0.0 - - 10 - - - -
27/10:30pm 22.2 SE 12 15 1019.0 - 0.0 - - 10 - - - -
27/10:00pm 22.2 SE 13 16 1019.0 - 0.0 - - 10 - - - -
27/09:30pm 22.2 SE 12 15 1019.0 - 0.0 - - 10 - - - -
27/09:00pm 22.1 SE 12 15 1018.4 - 0.0 - - 10 - - - -
27/08:30pm 22.1 SE 12 15 1018.4 - 0.0 - - 10 - - - -
27/08:00pm 21.9 SE 10 13 1018.2 - 0.0 - - 10 - - - -
27/07:30pm 21.9 SE 10 14 1017.7 - 0.0 - - 10 - - - -
27/07:00pm 22.3 ESE 12 14 1017.4 - 0.0 - - 10 - - - -
27/06:30pm 22.3 ESE 12 14 1017.0 - 0.0 - - 10 - - - -
27/06:00pm 22.2 ESE 12 15 1016.5 - 0.0 - - 10 - - - -
27/05:30pm 22.3 ESE 13 15 1016.5 - 0.0 - - 10 - - - -
27/05:00pm 22.4 ESE 13 17 1016.2 - 0.0 - - 10 - - - -
27/04:30pm 22.7 ESE 13 16 1016.2 - 0.0 - - 10 - - - -
27/04:00pm 22.6 ESE 14 17 1015.9 - 0.0 - - 10 - - - -
27/03:30pm 23.0 SE 12 15 1015.9 - 0.0 - - 10 - - - -
27/03:00pm 23.2 SE 14 17 1015.7 - 0.0 - - 10 - - - -
27/02:30pm 23.3 SE 15 19 1015.9 - 0.0 - - 10 - - - -
27/02:00pm 23.0 SE 17 21 1015.9 - 0.0 - - 10 - - - -
27/01:30pm 22.9 SSE 18 22 1016.2 - 0.0 - - 10 - - - -
27/01:00pm 23.0 SSE 17 21 1016.8 - 0.0 - - 10 - - - -
27/12:30pm 22.8 SSE 18 22 1017.2 - 0.0 - - 10 - - - -
27/12:00pm 22.6 SSE 18 22 1017.5 - 0.0 - - 10 - - - -
27/11:30am 22.8 SSE 19 24 1018.2 - 0.0 - - 10 - - - -
27/11:00am 22.0 SSE 20 24 1018.6 - 0.0 - - 10 - - - -
27/10:30am 21.8 SSE 21 25 1019.1 - 0.0 - - 10 - - - -
27/10:00am 21.7 SSE 21 26 1019.2 - 0.0 - - 10 - - - -
27/09:30am 21.5 SSE 21 27 1019.1 - 0.0 - - 10 - - - -
27/09:00am 21.5 SSE 22 27 1018.7 - 0.0 - - 10 - - - -
27/08:30am 21.5 SSE 23 29 1018.7 - 0.0 - - 10 - - - -
27/08:00am 21.4 SSE 25 32 1018.2 - 0.0 - - 10 - - - -
27/07:30am 21.3 SSE 25 30 1018.1 - 0.0 - - 10 - - - -
27/07:00am 21.2 SSE 24 30 1017.8 - 0.0 - - 10 - - - -
27/06:30am 21.1 SSE 23 29 1017.4 - 0.0 - - 10 - - - -
27/06:00am 21.2 SSE 23 28 1016.8 - 0.0 - - 10 - - - -
27/05:30am 21.5 SSE 23 27 1016.6 - 0.0 - - 10 - - - -
27/05:00am 21.8 SSE 20 25 1016.2 - 0.0 - - 10 - - - -
27/04:30am 22.2 SSE 19 24 1015.9 - 0.0 - - 10 - - - -
27/04:00am 22.5 SSE 17 23 1015.7 - 0.0 - - 10 - - - -
27/03:30am 23.0 SSE 17 20 1015.6 - 0.0 - - 10 - - - -
27/03:00am 23.1 SSE 13 17 1015.4 - 0.0 - - 10 - - - -
27/02:30am 22.4 S 12 15 1015.8 - 0.0 - - 10 - - - -
27/02:00am 22.4 S 12 15 1015.7 - 0.0 - - 10 - - - -
27/01:30am 22.3 S 12 14 1015.6 - 0.0 - - 10 - - - -
27/01:00am 22.4 SSE 11 14 1015.8 - 0.0 - - 10 - - - -
27/12:30am 22.4 S 8 11 1016.0 - 0.0 - - 10 - - - -
27/12:00am 22.6 S 9 11 1016.0 - 0.0 - - 10 - - - -
 
Date/Time
EST
Temp

°C
Wind Pressure Rain
since 9am
mm
Weather Cloud Vis
km
Sea
Height
m
Swell
Dir
 
Speed
knots
Gust
knots
hPa Trend Height
m
Period
s
Dir
26/11:30pm 23.1 S 7 9 1016.4 - 0.0 - - 10 - - - -
26/11:00pm 22.7 SW 4 5 1016.5 - 0.0 - - 10 - - - -
26/10:30pm 22.2 NW 3 4 1016.5 - 0.0 - - 10 - - - -
26/10:00pm 23.4 CALM 0 0 1016.5 - 0.0 - - 10 - - - -
26/09:30pm 23.5 SSE 3 5 1016.6 - 0.0 - - 10 - - - -
26/09:00pm 23.9 SE 2 5 1016.3 - 0.0 - - 10 - - - -
26/08:30pm 22.8 SE 5 6 1016.3 - 0.0 - - 10 - - - -
26/08:00pm 23.5 ESE 8 9 1015.9 - 0.0 - - 10 - - - -
26/07:30pm 23.8 ESE 9 11 1015.4 - 0.0 - - 10 - - - -
26/07:00pm 23.9 ESE 10 13 1015.1 - 0.0 - - 10 - - - -
26/06:30pm 23.8 ESE 11 14 1014.6 - 0.0 - - 10 - - - -
26/06:00pm 23.9 ESE 12 14 1014.0 - 0.0 - - 10 - - - -
26/05:30pm 24.1 E 13 15 1013.9 - 0.0 - - 10 - - - -
26/05:00pm 24.4 E 11 14 1013.6 - 0.0 - - 10 - - - -
26/04:30pm 24.7 E 10 11 1013.3 - 0.0 - - 10 - - - -
26/04:00pm 24.6 ESE 12 14 1013.2 - 0.0 - - 10 - - - -
26/03:30pm 25.0 E 11 14 1013.2 - 0.0 - - 10 - - - -
26/03:00pm 25.1 E 10 12 1012.9 - 0.0 - - 10 - - - -
26/02:30pm 25.7 ESE 10 12 1013.3 - 0.0 - - 10 - - - -
26/02:00pm 26.2 SE 10 12 1013.4 - 0.0 - - 10 - - - -
26/01:30pm 26.0 SE 14 16 1013.7 - 0.0 - - 10 - - - -
26/01:00pm 25.7 SE 12 15 1013.9 - 0.0 - - 10 - - - -
26/12:30pm 25.9 SE 12 15 1014.3 - 0.0 - - 10 - - - -
26/12:00pm 25.1 SSE 13 17 1014.5 - 0.0 - - 10 - - - -
26/11:30am 25.1 SSE 13 17 1015.1 - 0.0 - - 10 - - - -
26/11:00am 24.6 SSE 14 17 1015.3 - 0.0 - - 10 - - - -
26/10:30am 24.4 SSE 15 19 1015.4 - 0.0 - - 10 - - - -
26/10:00am 24.3 SSE 16 20 1015.5 - 0.0 - - 10 - - - -
26/09:30am 24.2 S 16 22 1015.6 - 0.0 - - 10 - - - -
26/09:00am 24.4 SSE 18 23 1015.0 - 0.0 - - 10 - - - -
26/08:30am 24.2 SSE 19 24 1014.8 - 0.0 - - 10 - - - -
26/08:00am 24.3 S 19 25 1014.5 - 0.0 - - 10 - - - -
26/07:30am 24.6 S 18 25 1014.3 - 0.0 - - 10 - - - -
26/07:00am 24.7 S 16 23 1013.9 - 0.0 - - 10 - - - -
26/06:30am 24.6 S 19 25 1013.5 - 0.0 - - 10 - - - -
26/06:00am 24.7 S 17 24 1012.7 - 0.0 - - 10 - - - -
26/05:30am 25.0 S 15 20 1012.6 - 0.0 - - 10 - - - -
26/05:00am 24.5 S 14 18 1012.4 - 0.0 - - 10 - - - -
26/04:30am 24.7 S 14 17 1012.1 - 0.0 - - 10 - - - -
26/04:00am 24.9 S 11 17 1011.9 - 0.0 - - 10 - - - -
26/03:30am 24.4 WSW 7 11 1011.9 - 0.0 - - 10 - - - -
26/03:00am 24.1 W 7 9 1011.4 - 0.0 - - 10 - - - -
26/02:30am 24.0 WNW 7 8 1011.8 - 0.0 - - 10 - - - -
26/02:00am 24.3 WNW 8 11 1011.9 - 0.0 - - 10 - - - -
26/01:30am 24.8 NW 12 14 1012.0 - 0.0 - - 10 - - - -
26/01:00am 24.7 WNW 11 14 1012.2 - 0.0 - - 10 - - - -
26/12:30am 25.0 NW 13 16 1012.4 - 0.0 - - 10 - - - -
26/12:00am 25.2 NW 11 15 1012.2 - 0.0 - - 10 - - - -
 
Date/Time
EST
Temp

°C
Wind Pressure Rain
since 9am
mm
Weather Cloud Vis
km
Sea
Height
m
Swell
Dir
 
Speed
knots
Gust
knots
hPa Trend Height
m
Period
s
Dir
25/11:30pm 25.2 NW 11 15 1012.7 - 0.0 - - 10 - - - -
25/11:00pm 24.6 NNW 8 9 1013.0 - 0.0 - - 10 - - - -
25/10:30pm 25.1 NNW 11 13 1013.0 - 0.0 - - 10 - - - -
25/10:00pm 24.8 NNW 9 11 1012.9 - 0.0 - - 10 - - - -
25/09:30pm 25.0 NNW 9 11 1013.0 - 0.0 - - 10 - - - -
25/09:00pm 25.1 NNW 9 12 1012.6 - 0.0 - - 10 - - - -
25/08:30pm 25.1 NNW 8 12 1012.9 - 0.0 - - 10 - - - -
25/08:00pm 25.2 NNW 8 10 1012.5 - 0.0 - - 10 - - - -
25/07:30pm 25.3 NNW 8 11 1012.3 - 0.0 - - 10 - - - -
25/07:00pm 25.4 N 9 11 1011.8 - 0.0 - - 10 - - - -
25/06:30pm 25.9 NNW 13 15 1011.3 - 0.0 - - 10 - - - -
25/06:00pm 26.0 NW 11 14 1010.7 - 0.0 - - 10 - - - -
25/05:30pm 26.5 NW 10 13 1010.6 - 0.0 - - 10 - - - -
25/05:00pm 27.0 NNW 9 12 1010.2 - 0.0 - - 10 - - - -
25/04:30pm 28.0 NW 7 9 1009.9 - 0.0 - - 10 - - - -
25/04:00pm 27.9 SE 2 7 1009.8 - 0.0 - - 10 - - - -
25/03:30pm 28.0 E 4 7 1009.7 - 0.0 - - 10 - - - -
25/03:00pm 28.2 SSE 4 7 1009.4 - 0.0 - - 10 - - - -
25/02:30pm 29.5 WNW 5 7 1009.7 - 0.0 - - 10 - - - -
25/02:00pm 28.8 NNW 9 11 1009.8 - 0.0 - - 10 - - - -
25/01:30pm 28.5 NNW 9 11 1010.1 - 0.0 - - 10 - - - -
25/01:00pm 28.5 NNW 9 11 1010.5 - 0.0 - - 10 - - - -
25/12:30pm 28.4 NNW 9 11 1010.9 - 0.0 - - 10 - - - -
25/12:00pm 27.5 NNW 9 11 1011.0 - 0.0 - - 10 - - - -
25/11:30am 27.4 NNW 9 11 1011.5 - 0.0 - - 10 - - - -
25/11:00am 26.6 NNW 10 14 1011.9 - 0.0 - - 10 - - - -
25/10:30am 26.4 NNW 10 13 1012.3 - 0.0 - - 10 - - - -
25/10:00am 26.0 NNW 10 12 1012.6 - 0.0 - - 10 - - - -
25/09:30am 25.8 NW 7 10 1012.7 - 0.0 - - 10 - - - -
25/09:00am 25.6 NW 6 8 1012.4 - 0.0 - - 10 - - - -
25/08:30am 25.1 NNW 6 8 1012.5 - 0.0 - - 10 - - - -
25/08:00am 24.4 NNW 5 6 1012.3 - 0.0 - - 10 - - - -
25/07:30am 23.2 NNW 5 6 1012.1 - 0.0 - - 10 - - - -
25/07:00am 22.7 NNW 4 5 1011.9 - 0.0 - - 10 - - - -
25/06:30am 22.3 NNW 5 6 1011.6 - 0.0 - - 10 - - - -
25/06:00am 22.4 NW 4 4 1011.0 - 0.0 - - 10 - - - -
25/05:30am 22.4 NNW 2 4 1011.1 - 0.0 - - 10 - - - -
25/05:00am 22.7 CALM 0 0 1010.9 - 0.0 - - 10 - - - -
25/04:30am 22.5 NNW 3 4 1010.8 - 0.0 - - 10 - - - -
25/04:00am 22.4 NNW 5 5 1010.7 - 0.0 - - 10 - - - -
25/03:30am 22.4 N 4 5 1010.6 - 0.0 - - 10 - - - -
25/03:00am 22.8 NNW 2 4 1010.5 - 0.0 - - 10 - - - -
25/02:30am 22.7 NNW 4 4 1010.8 - 0.0 - - 10 - - - -
25/02:00am 23.1 N 3 5 1010.9 - 0.0 - - 10 - - - -
25/01:30am 22.9 NNW 4 5 1011.1 - 0.0 - - 10 - - - -
25/01:00am 22.8 NNW 4 6 1011.4 - 0.0 - - 10 - - - -
25/12:30am 22.9 NNW 5 5 1011.5 - 0.0 - - 10 - - - -
25/12:00am 22.9 NNW 4 6 1011.4 - 0.0 - - 10 - - - -

Other Formats:

Comma delimited format used in spreadsheet applications
http://www.bom.gov.au/fwo/IDQ60701/IDQ60701.94368.axf

JavaScript Object Notation format (JSON) in row-major order
http://www.bom.gov.au/fwo/IDQ60701/IDQ60701.94368.json